Flight Track Log - Related Links

Times and Time Zones

All times are in EDT time to prevent confusion due to time zone crossing. See the SKW5587 flight status page for this flight to view local times or setup timezone preferences in your user account.

Time Position Orientation Groundspeed Altitude Reporting Facility
EDT Latitude Longitude Course Direction KTS MPH feet Rate Location/Type
Sat 03:38:44 PM 39.9167 -104.7000 348° North 192 221 6,700  Level Denver TRACON
Sat 03:39:44 PM 39.9833 -104.7167 349° North 229 264 8,100 1,600 Climbing Denver TRACON
Sat 03:40:44 PM 40.0500 -104.7333 349° North 253 291 9,900 1,714 Climbing Denver TRACON
Sat 03:42:00 PM 40.4179 -104.8504 346° North  Level FlightAware Approximate
Sat 03:42:04 PM 40.1450 -104.7453 355° North 271 312 12,100  Level Denver Center
Sat 03:43:00 PM 40.5316 -104.8876 348° North  Level FlightAware Approximate
Sat 03:43:06 PM 40.2361 -104.7606 353° North 305 351 14,000  Level Denver Center
Sat 03:44:08 PM 40.3211 -104.7742 353° North 307 353 15,900 1,645 Climbing Denver Center
Sat 03:45:10 PM 40.4128 -104.7897 353° North 311 358 17,400 1,258 Climbing Denver Center
Sat 03:46:12 PM 40.5036 -104.8044 353° North 330 380 18,500 1,161 Climbing Denver Center
Sat 03:47:14 PM 40.6025 -104.8233 352° North 331 381 19,800 1,161 Climbing Denver Center
Sat 03:48:16 PM 40.6881 -104.8683 338° Northwest 335 386 20,900 1,161 Climbing Denver Center
Sat 03:49:18 PM 40.7533 -104.9525 316° Northwest 325 374 22,200 1,258 Climbing Denver Center
Sat 03:50:20 PM 40.8181 -105.0414 314° West 337 388 23,500 1,113 Climbing Denver Center
Sat 03:51:22 PM 40.8850 -105.1317 314° West 341 392 24,500 774 Climbing Denver Center
Sat 03:52:24 PM 40.9542 -105.2228 315° West 345 397 25,100 585 Climbing Denver Center
Sat 03:53:25 PM 41.0353 -105.3356 314° West 371 427 25,700 537 Climbing Denver Center
Sat 03:54:27 PM 41.1083 -105.4328 315° West 385 443 26,200 484 Climbing Denver Center
Sat 03:55:29 PM 41.1964 -105.5503 315° West 398 458 26,700 484 Climbing Denver Center
Sat 03:56:31 PM 41.2661 -105.6589 311° West 401 461 27,200 532 Climbing Denver Center
Sat 03:57:33 PM 41.3497 -105.7881 311° West 408 470 27,800 532 Climbing Denver Center
Sat 03:58:35 PM 41.4219 -105.8981 311° West 410 472 28,300 484 Climbing Denver Center
Sat 03:59:37 PM 41.5058 -106.0275 311° West 413 475 28,800 488 Climbing Denver Center
Sat 04:00:38 PM 41.5772 -106.1386 311° West 414 476 29,300 585 Climbing Denver Center
Sat 04:01:40 PM 41.6608 -106.2689 311° West 413 475 30,000 726 Climbing Denver Center
Sat 04:02:42 PM 41.7314 -106.3797 310° West 408 470 30,800 726 Climbing Denver Center
Sat 04:03:44 PM 41.7997 -106.4867 311° West 401 461 31,500 581 Climbing Denver Center
Sat 04:04:46 PM 41.8872 -106.5803 321° Northwest 390 449 32,000 242 Climbing Denver Center
Sat 04:05:48 PM 41.9919 -106.6711 327° Northwest 398 458 32,000 48 Level Denver Center
Sat 04:06:50 PM 42.0850 -106.7539 327° Northwest 413 475 32,100  Climbing Denver Center
Sat 04:07:51 PM 42.1731 -106.8786 314° West 419 482 32,000 -49 Descending Denver Center
Sat 04:08:53 PM 42.2433 -106.9964 309° West 421 484 32,000  Level Denver Center
Sat 04:09:55 PM 42.3281 -107.1361 309° West 428 493 32,000  Level Denver Center
Sat 04:10:57 PM 42.3992 -107.2539 309° West 427 491 32,000  Level Denver Center
Sat 04:11:59 PM 42.4844 -107.3944 309° West 430 495 32,000  Level Denver Center
Sat 04:13:01 PM 42.5556 -107.5142 309° West 428 493 32,000  Level Denver Center
Sat 04:14:03 PM 42.6389 -107.6547 309° West 430 495 32,000  Level Denver Center
Sat 04:15:11 PM 42.7214 -107.7936 309° West 426 490 32,000  Level Salt Lake Center
Sat 04:16:13 PM 42.7931 -107.9144 309° West 426 490 32,000  Level Salt Lake Center
Sat 04:17:14 PM 42.8747 -108.0542 309° West 426 490 32,000  Level Salt Lake Center
Sat 04:18:16 PM 42.9447 -108.1717 309° West 423 487 32,000  Level Salt Lake Center
Sat 04:19:18 PM 43.0131 -108.2942 307° West 426 490 32,000  Level Salt Lake Center
Sat 04:20:20 PM 43.1014 -108.4450 309° West 422 486 32,000  Level Salt Lake Center
Sat 04:21:22 PM 43.1744 -108.5706 309° West 422 486 32,000  Level Salt Lake Center
Sat 04:22:24 PM 43.2414 -108.7000 305° West 421 484 32,000  Level Salt Lake Center
Sat 04:23:26 PM 43.3008 -108.8358 301° West 417 480 32,000  Level Salt Lake Center
Sat 04:24:28 PM 43.3622 -108.9728 302° West 417 480 32,000  Level Salt Lake Center
Sat 04:25:30 PM 43.4300 -109.0997 306° West 417 480 32,000  Level Salt Lake Center
Sat 04:26:32 PM 43.5036 -109.2250 309° West 418 481 32,000  Level Salt Lake Center
Sat 04:27:34 PM 43.5903 -109.3736 309° West 417 480 32,000  Level Salt Lake Center
Sat 04:28:36 PM 43.6556 -109.4881 308° West 417 480 32,000  Level Salt Lake Center
Sat 04:29:38 PM 43.7264 -109.6133 308° West 417 480 32,000  Level Salt Lake Center
Sat 04:30:40 PM 43.8122 -109.7650 308° West 417 480 32,000  Level Salt Lake Center
Sat 04:31:42 PM 43.8828 -109.8908 308° West 417 480 32,000  Level Salt Lake Center
Sat 04:32:44 PM 43.9536 -110.0181 308° West 417 480 32,000  Level Salt Lake Center
Sat 04:33:46 PM 44.0253 -110.1467 308° West 418 481 32,000  Level Salt Lake Center
Sat 04:34:48 PM 44.0942 -110.2725 307° West 414 476 32,000  Level Salt Lake Center
Sat 04:35:50 PM 44.1647 -110.4003 308° West 414 476 32,000  Level Salt Lake Center
Sat 04:36:52 PM 44.2483 -110.5542 307° West 415 478 32,000  Level Salt Lake Center
Sat 04:37:54 PM 44.3167 -110.6828 307° West 414 476 32,000  Level Salt Lake Center
Sat 04:38:56 PM 44.3867 -110.8108 307° West 419 482 32,000 48 Level Salt Lake Center
Sat 04:39:58 PM 44.4569 -110.9406 307° West 419 482 32,100  Climbing Salt Lake Center
Sat 04:41:00 PM 44.5261 -111.0700 307° West 419 482 32,000 -48 Descending Salt Lake Center
Sat 04:42:02 PM 44.6094 -111.2258 307° West 420 483 32,000  Level Salt Lake Center
Sat 04:43:04 PM 44.6778 -111.3539 307° West 420 483 32,000  Level Salt Lake Center
Sat 04:44:06 PM 44.7464 -111.4831 307° West 420 483 32,000  Level Salt Lake Center
Sat 04:45:08 PM 44.8147 -111.6133 307° West 420 483 32,000  Level Salt Lake Center
Sat 04:46:10 PM 44.8844 -111.7453 307° West 420 483 32,000  Level Salt Lake Center
Sat 04:47:11 PM 44.9672 -111.9053 306° West 422 486 32,000  Level Salt Lake Center
Sat 04:48:13 PM 45.0367 -112.0403 306° West 422 486 32,000  Level Salt Lake Center
Sat 04:49:15 PM 45.1050 -112.1739 306° West 423 487 32,000  Level Salt Lake Center
Sat 04:50:17 PM 45.1744 -112.3100 306° West 424 488 32,000  Level Salt Lake Center
Sat 04:51:19 PM 45.2439 -112.4456 306° West 425 489 32,000  Level Salt Lake Center
Sat 04:52:21 PM 45.3128 -112.5814 306° West 426 490 32,000  Level Salt Lake Center
Sat 04:53:23 PM 45.3964 -112.7456 306° West 425 489 32,000  Level Salt Lake Center
Sat 04:54:24 PM 45.4661 -112.8847 306° West 426 490 32,000  Level Salt Lake Center
Sat 04:55:26 PM 45.5350 -113.0247 305° West 424 488 32,000  Level Salt Lake Center
Sat 04:56:28 PM 45.6044 -113.1639 306° West 425 489 32,000  Level Salt Lake Center
Sat 04:57:30 PM 45.6744 -113.3039 306° West 424 488 32,000  Level Salt Lake Center
Sat 04:58:32 PM 45.7425 -113.4444 305° West 423 487 32,000  Level Salt Lake Center
Sat 04:59:34 PM 45.8189 -113.5961 306° West 426 490 32,000  Level Salt Lake Center
Sat 05:00:36 PM 45.8850 -113.7250 306° West 429 494 32,000  Level Salt Lake Center
Sat 05:01:38 PM 45.9514 -113.8661 304° West 430 495 32,000  Level Salt Lake Center
Sat 05:02:40 PM 46.0200 -114.0058 305° West 428 493 32,000  Level Salt Lake Center
Sat 05:03:42 PM 46.0878 -114.1456 305° West 428 493 32,000  Level Salt Lake Center
Sat 05:04:44 PM 46.1694 -114.3150 305° West 428 493 32,000  Level Salt Lake Center
Sat 05:05:46 PM 46.2358 -114.4556 304° West 428 493 32,000  Level Salt Lake Center
Sat 05:06:47 PM 46.3022 -114.5967 304° West 426 490 32,000  Level Salt Lake Center
Sat 05:07:49 PM 46.3686 -114.7367 305° West 425 489 32,000  Level Salt Lake Center
Sat 05:08:51 PM 46.4339 -114.8775 304° West 424 488 32,000  Level Salt Lake Center
Sat 05:09:53 PM 46.5000 -115.0172 305° West 423 487 32,000  Level Salt Lake Center
Sat 05:10:55 PM 46.5650 -115.1583 304° West 421 484 32,000  Level Salt Lake Center
Sat 05:11:57 PM 46.6431 -115.3283 304° West 421 484 32,000  Level Salt Lake Center
Sat 05:12:59 PM 46.7103 -115.4719 304° West 423 487 32,000 -484 Level Salt Lake Center
Sat 05:14:01 PM 46.7756 -115.6153 304° West 423 487 31,000 -968 Descending Salt Lake Center
Sat 05:15:03 PM 46.8403 -115.7586 303° West 424 488 30,000 -968 Descending Salt Lake Center
Sat 05:16:05 PM 46.9047 -115.9011 304° West 423 487 29,000 -1,016 Descending Salt Lake Center
Sat 05:17:07 PM 46.9728 -116.0525 303° West 418 481 27,900 -1,016 Descending Salt Lake Center
Sat 05:18:09 PM 47.0350 -116.1925 303° West 415 478 26,900 -1,645 Descending Salt Lake Center
Sat 05:19:11 PM 47.0975 -116.3328 303° West 414 476 24,500 -2,831 Descending Salt Lake Center
Sat 05:20:31 PM 47.1822 -116.5242 303° West 404 465 20,200 -3,106 Descending Seattle Center
Sat 05:21:32 PM 47.2408 -116.6556 303° West 388 447 17,200 -2,951 Descending Seattle Center
Sat 05:22:33 PM 47.2958 -116.7822 303° West 370 426 14,200 -2,311 Descending Seattle Center
Sat 05:23:34 PM 47.3594 -116.8856 312° West 340 391 12,500 -1,707 Descending Seattle Center
Sat 05:24:36 PM 47.4225 -116.9878 312° West 308 354 10,700 -1,805 Descending Seattle Center
Sat 05:25:37 PM 47.4797 -117.0825 312° West 294 338 8,800 -1,721 Descending Seattle Center
Sat 05:26:38 PM 47.5297 -117.1686 311° West 281 323 7,200 -1,279 Descending Seattle Center
Sat 05:27:39 PM 47.5775 -117.2500 311° West 265 305 6,200 -885 Descending Seattle Center
Sat 05:28:40 PM 47.6264 -117.3297 312° West 247 284 5,400 -836 Descending Seattle Center
Sat 05:29:41 PM 47.6686 -117.3992 312° West 233 268 4,500 -984 Descending Seattle Center
Sat 05:30:42 PM 47.6683 -117.4633 270° West 177 204 3,400 -885 Descending Seattle Center
Sat 05:31:43 PM 47.6397 -117.5061 225° Southwest 152 175 2,700 -492 Descending Seattle Center
Sat 05:32:44 PM 47.6192 -117.5381 226° Southwest 113 130 2,400 -148 Descending Seattle Center
Sat 05:33:45 PM 47.6186 -117.5325 98° East 47 54 2,400  Level Seattle Center

Login

Don't have an account? Register now (free) for customized features, flight alerts, and more!